Schulenburg, Texas
Current Conditions -  °F | °C
As of 9:55 AM on Sunday 23 Nov 2014 (Local Time) from K3T5 Reporting Station
Clear Clear  
Wind Chill: 67°   Ceiling: Unl
Heat Index: 67°   Visibility: 10mi
Dew Point: 59°   Wind: 8mph
Humidity: 74%   Direction: 240°WSW
Pressure: 29.66"   Gusts: NA
Location:  29.68°N, 96.9°W
Report Text: K3T5 231555Z AUTO 24007KT 10SM CLR 20/15 A2966 RMK AO2 T01950148
Loading
Personal Weather Stations






























Interactive Weather Map New forecast layout! Learn more

10-Day Weather Forecast

Advertisements
Track Severe Weather on mobile